Time;durP1;ratioP1;P1;durP2;ratioP2;P2;SDS_P1;SDS_P2;PMS_P1;PMS_P2;Temp;Humidity;BMP_temperature;BMP_pressure;BME280_temperature;BME280_humidity;BME280_pressure;Samples;Min_cycle;Max_cycle;Signal;HPM_P1;HPM_P2
2023/04/27 00:00:40;;;;;;;2.33;2.13;;;8.00;93.80;;;;;;5110008;28;20658;-72
2023/04/27 00:03:06;;;;;;;3.27;2.97;;;8.00;93.70;;;;;;5111285;28;20638;-72
2023/04/27 00:05:35;;;;;;;3.33;2.90;;;8.00;93.60;;;;;;5097603;28;20661;-72
2023/04/27 00:08:03;;;;;;;3.50;3.13;;;7.90;93.40;;;;;;5101908;28;20622;-71
2023/04/27 00:10:30;;;;;;;2.67;2.45;;;7.90;93.30;;;;;;5109969;28;20226;-72
2023/04/27 00:12:56;;;;;;;2.10;1.88;;;7.90;93.70;;;;;;5111076;28;20200;-72
2023/04/27 00:15:23;;;;;;;4.47;2.07;;;7.90;93.20;;;;;;5097590;28;20229;-72
2023/04/27 00:17:50;;;;;;;1.97;1.87;;;7.80;93.80;;;;;;5091165;28;20625;-72
2023/04/27 00:20:19;;;;;;;2.77;2.60;;;7.90;93.80;;;;;;5096715;28;20638;-72
2023/04/27 00:22:46;;;;;;;5.37;3.00;;;7.80;94.10;;;;;;5110001;28;20898;-72
2023/04/27 00:25:14;;;;;;;3.23;1.90;;;7.80;94.50;;;;;;5110706;28;20658;-72
2023/04/27 00:27:41;;;;;;;2.67;2.07;;;7.80;94.50;;;;;;5107836;28;21017;-72
2023/04/27 00:30:09;;;;;;;2.00;1.80;;;7.80;94.80;;;;;;5094068;28;20632;-72
2023/04/27 00:32:36;;;;;;;2.10;1.90;;;7.80;94.60;;;;;;5109428;27;20220;-72
2023/04/27 00:35:02;;;;;;;4.65;2.50;;;7.80;94.60;;;;;;5096976;28;20635;-72
2023/04/27 00:37:29;;;;;;;4.10;2.50;;;7.80;95.00;;;;;;5090123;28;20590;-72
2023/04/27 00:39:56;;;;;;;3.47;2.63;;;7.80;95.00;;;;;;5104069;28;20624;-72
2023/04/27 00:42:25;;;;;;;2.20;2.00;;;7.80;94.70;;;;;;5099714;28;20666;-72
2023/04/27 00:44:51;;;;;;;1.50;1.40;;;7.80;94.70;;;;;;5090815;28;20670;-72
2023/04/27 00:47:19;;;;;;;4.43;3.45;;;7.80;94.50;;;;;;5105032;28;20662;-72
2023/04/27 00:49:45;;;;;;;2.73;2.10;;;7.80;93.90;;;;;;5099209;28;20305;-72
2023/04/27 00:52:12;;;;;;;3.13;2.85;;;7.80;94.10;;;;;;5098275;28;20655;-72
2023/04/27 00:54:39;;;;;;;2.30;2.10;;;7.70;93.90;;;;;;5098928;28;20196;-70
2023/04/27 00:57:06;;;;;;;2.35;1.98;;;7.70;93.40;;;;;;5099282;28;20229;-73
2023/04/27 00:59:34;;;;;;;2.20;1.83;;;7.70;93.30;;;;;;5102298;28;20555;-71
2023/04/27 01:02:01;;;;;;;2.58;2.38;;;7.70;94.00;;;;;;5097722;28;21277;-71
2023/04/27 01:04:30;;;;;;;2.15;2.05;;;7.70;94.40;;;;;;5103660;28;20212;-71
2023/04/27 01:06:57;;;;;;;2.58;2.38;;;7.70;94.10;;;;;;5109770;28;20251;-71
2023/04/27 01:09:24;;;;;;;2.37;2.17;;;7.70;94.80;;;;;;5096948;28;20209;-71
2023/04/27 01:11:51;;;;;;;2.20;1.98;;;7.70;94.80;;;;;;5106906;28;20686;-72
2023/04/27 01:14:18;;;;;;;2.45;2.22;;;7.60;95.10;;;;;;5108062;28;20652;-71
2023/04/27 01:16:47;;;;;;;2.72;2.53;;;7.50;95.20;;;;;;5102491;28;20232;-72
2023/04/27 01:19:15;;;;;;;3.63;2.58;;;7.50;95.20;;;;;;5091114;27;20210;-71
2023/04/27 01:21:42;;;;;;;3.00;2.80;;;7.50;95.30;;;;;;5091198;28;20933;-72
2023/04/27 01:24:12;;;;;;;2.55;2.38;;;7.50;94.80;;;;;;5110183;28;20215;-72
2023/04/27 01:26:39;;;;;;;2.22;2.03;;;7.50;94.80;;;;;;5108857;28;20536;-71
2023/04/27 01:29:07;;;;;;;2.83;2.63;;;7.50;94.60;;;;;;5102027;28;20276;-71
2023/04/27 01:31:34;;;;;;;2.35;2.15;;;7.50;95.10;;;;;;5100029;28;20744;-71
2023/04/27 01:34:01;;;;;;;4.72;2.78;;;7.60;94.80;;;;;;5106832;28;20275;-71
2023/04/27 01:36:27;;;;;;;2.60;2.40;;;7.60;94.60;;;;;;5107093;28;20224;-71
2023/04/27 01:38:56;;;;;;;3.08;2.88;;;7.60;95.50;;;;;;5107101;28;20257;-71
2023/04/27 01:41:24;;;;;;;4.75;2.85;;;7.50;94.80;;;;;;5106351;28;20330;-72
2023/04/27 01:43:52;;;;;;;3.78;1.83;;;7.60;94.50;;;;;;5106443;28;20320;-71
2023/04/27 01:46:20;;;;;;;1.85;1.70;;;7.60;94.10;;;;;;5089283;28;20275;-71
2023/04/27 01:48:47;;;;;;;2.13;1.95;;;7.60;94.40;;;;;;5099809;28;20587;-71
2023/04/27 01:51:15;;;;;;;3.10;2.22;;;7.70;94.60;;;;;;5106360;28;20231;-71
2023/04/27 01:53:43;;;;;;;3.03;2.65;;;7.70;94.30;;;;;;5101547;28;20200;-72
2023/04/27 01:56:10;;;;;;;2.42;2.22;;;7.70;94.70;;;;;;5107812;28;20250;-71
2023/04/27 01:58:39;;;;;;;2.35;2.15;;;7.70;94.60;;;;;;5101477;28;20210;-71
2023/04/27 02:01:07;;;;;;;1.98;1.77;;;7.70;93.10;;;;;;5106532;28;20285;-71
2023/04/27 02:03:35;;;;;;;4.47;3.10;;;7.70;93.40;;;;;;5089520;28;20194;-71
2023/04/27 02:06:02;;;;;;;2.50;2.30;;;7.70;93.60;;;;;;5107840;28;20228;-71
2023/04/27 02:08:30;;;;;;;2.47;2.22;;;7.60;93.50;;;;;;5098033;28;20243;-71
2023/04/27 02:10:57;;;;;;;1.92;1.83;;;7.60;93.50;;;;;;5096405;28;20217;-71
2023/04/27 02:13:24;;;;;;;2.40;2.05;;;7.60;94.00;;;;;;5108007;28;20249;-71
2023/04/27 02:15:52;;;;;;;2.10;1.97;;;7.50;94.00;;;;;;5106483;28;20711;-71
2023/04/27 02:18:19;;;;;;;2.00;1.90;;;7.50;94.10;;;;;;5106139;28;20656;-71
2023/04/27 02:20:46;;;;;;;2.00;1.90;;;7.40;94.50;;;;;;5090268;28;20224;-71
2023/04/27 02:23:13;;;;;;;3.25;2.95;;;7.40;94.40;;;;;;5092974;28;20713;-72
2023/04/27 02:25:45;;;;;;;1.85;1.75;;;7.40;94.50;;;;;;5108070;28;20308;-71
2023/04/27 02:28:12;;;;;;;3.25;2.25;;;7.40;94.30;;;;;;5098656;28;20291;-72
2023/04/27 02:30:40;;;;;;;5.15;2.60;;;7.40;94.80;;;;;;5088083;28;20315;-71
2023/04/27 02:33:09;;;;;;;2.80;2.60;;;7.40;94.90;;;;;;5089373;28;20215;-71
2023/04/27 02:35:37;;;;;;;2.58;2.40;;;7.40;95.40;;;;;;5095841;28;20273;-71
2023/04/27 02:38:03;;;;;;;8.18;3.78;;;7.30;95.40;;;;;;5106454;28;20185;-71
2023/04/27 02:40:31;;;;;;;6.60;3.13;;;7.40;95.30;;;;;;5107500;28;20227;-71
2023/04/27 02:42:57;;;;;;;2.55;2.35;;;7.30;95.20;;;;;;5088948;28;20625;-72
2023/04/27 02:45:25;;;;;;;3.55;2.67;;;7.30;95.30;;;;;;5088952;28;20255;-72
2023/04/27 02:47:52;;;;;;;3.05;2.75;;;7.40;95.10;;;;;;5102695;28;20607;-72
2023/04/27 02:50:22;;;;;;;1.75;1.65;;;7.30;94.90;;;;;;5091124;28;20281;-71
2023/04/27 02:52:48;;;;;;;7.68;3.15;;;7.30;94.90;;;;;;5087911;28;20299;-71
2023/04/27 02:55:16;;;;;;;2.10;2.00;;;7.30;94.60;;;;;;5087536;28;20189;-72
2023/04/27 02:57:43;;;;;;;3.22;2.95;;;7.30;94.60;;;;;;5090972;28;20188;-72
2023/04/27 03:00:13;;;;;;;3.17;2.70;;;7.20;94.80;;;;;;5106702;28;20673;-72
2023/04/27 03:02:40;;;;;;;3.38;3.05;;;7.30;95.40;;;;;;5108059;28;20630;-72
2023/04/27 03:05:08;;;;;;;5.38;3.47;;;7.30;94.70;;;;;;5097245;28;20267;-72
2023/04/27 03:07:37;;;;;;;2.42;2.20;;;7.30;94.80;;;;;;5106655;28;20690;-71
2023/04/27 03:10:05;;;;;;;7.10;3.40;;;7.30;95.00;;;;;;5102493;28;20215;-71
2023/04/27 03:12:34;;;;;;;4.60;3.03;;;7.30;95.20;;;;;;5112483;27;20246;-70
2023/04/27 03:15:00;;;;;;;2.70;2.50;;;7.30;95.70;;;;;;5112235;28;20192;-70
2023/04/27 03:17:27;;;;;;;5.15;3.60;;;7.30;95.80;;;;;;5111394;28;20228;-70
2023/04/27 03:19:54;;;;;;;4.93;3.20;;;7.30;96.00;;;;;;5106888;28;20291;-71
2023/04/27 03:22:21;;;;;;;3.55;2.38;;;7.30;96.20;;;;;;5109812;28;20654;-71
2023/04/27 03:24:49;;;;;;;5.13;4.00;;;7.30;96.10;;;;;;5110289;28;20219;-71
2023/04/27 03:27:16;;;;;;;3.77;3.50;;;7.30;96.00;;;;;;5112007;28;20721;-71
2023/04/27 03:29:43;;;;;;;3.30;3.00;;;7.30;96.00;;;;;;5091488;28;20656;-71
2023/04/27 03:32:09;;;;;;;2.95;2.70;;;7.30;96.50;;;;;;5091195;28;20234;-71
2023/04/27 03:34:36;;;;;;;5.35;3.08;;;7.30;96.60;;;;;;5100439;28;20192;-72
2023/04/27 03:37:03;;;;;;;2.75;2.45;;;7.30;96.00;;;;;;5106720;28;20212;-72
2023/04/27 03:39:30;;;;;;;2.15;1.98;;;7.30;96.40;;;;;;5090875;28;20197;-71
2023/04/27 03:41:58;;;;;;;3.20;2.65;;;7.40;96.10;;;;;;5096638;28;20231;-71
2023/04/27 03:44:25;;;;;;;3.90;3.15;;;7.40;96.30;;;;;;5092369;28;20200;-72
2023/04/27 03:46:51;;;;;;;3.95;2.53;;;7.40;96.10;;;;;;5090949;28;20231;-71
2023/04/27 03:49:18;;;;;;;7.03;3.13;;;7.30;96.10;;;;;;5097024;28;20282;-71
2023/04/27 03:51:45;;;;;;;3.22;2.90;;;7.30;96.10;;;;;;5108768;28;20235;-72
2023/04/27 03:54:12;;;;;;;4.88;3.67;;;7.30;96.50;;;;;;5108397;28;20199;-71
2023/04/27 03:56:39;;;;;;;3.53;3.15;;;7.30;96.60;;;;;;5111375;28;20323;-72
2023/04/27 03:59:07;;;;;;;3.47;3.17;;;7.30;96.40;;;;;;5104694;28;20208;-72
2023/04/27 04:01:35;;;;;;;3.90;2.63;;;7.20;96.30;;;;;;5092153;28;20234;-72
2023/04/27 04:04:02;;;;;;;4.93;3.22;;;7.20;96.40;;;;;;5092149;28;20657;-71
2023/04/27 04:06:28;;;;;;;3.55;2.67;;;7.20;96.30;;;;;;5110635;28;20681;-71
2023/04/27 04:08:55;;;;;;;3.40;3.13;;;7.20;96.10;;;;;;5100322;28;20684;-72
2023/04/27 04:11:22;;;;;;;3.03;2.70;;;7.20;96.20;;;;;;5090717;28;20218;-71
2023/04/27 04:13:49;;;;;;;2.60;2.40;;;7.30;96.70;;;;;;5091567;28;20993;-71
2023/04/27 04:16:17;;;;;;;3.35;3.15;;;7.30;96.40;;;;;;5099208;28;20220;-71
2023/04/27 04:18:44;;;;;;;3.45;2.60;;;7.30;96.20;;;;;;5097736;28;20797;-71
2023/04/27 04:21:11;;;;;;;3.80;3.60;;;7.30;96.40;;;;;;5106617;28;20220;-71
2023/04/27 04:23:39;;;;;;;4.93;3.35;;;7.30;96.10;;;;;;5106946;28;20204;-71
2023/04/27 04:26:07;;;;;;;3.67;3.38;;;7.40;96.10;;;;;;5090138;28;20298;-72
2023/04/27 04:28:34;;;;;;;3.45;2.80;;;7.30;95.80;;;;;;5100673;28;20211;-71
2023/04/27 04:31:01;;;;;;;4.25;2.95;;;7.30;95.90;;;;;;5109479;28;20239;-71
2023/04/27 04:33:30;;;;;;;3.63;3.33;;;7.30;96.70;;;;;;5110559;28;20665;-72
2023/04/27 04:35:57;;;;;;;3.58;3.28;;;7.20;96.40;;;;;;5110587;28;20327;-72
2023/04/27 04:38:24;;;;;;;2.90;2.57;;;7.30;96.70;;;;;;5104708;28;20578;-71
2023/04/27 04:40:51;;;;;;;3.03;2.70;;;7.30;96.80;;;;;;5098447;28;20654;-71
2023/04/27 04:43:18;;;;;;;3.75;3.45;;;7.40;96.90;;;;;;5102829;28;20208;-72
2023/04/27 04:45:45;;;;;;;7.63;3.38;;;7.40;96.00;;;;;;5108771;28;20239;-72
2023/04/27 04:48:15;;;;;;;3.83;3.13;;;7.40;95.60;;;;;;5101782;28;20189;-71
2023/04/27 04:50:43;;;;;;;3.70;3.37;;;7.50;95.80;;;;;;5100925;28;20227;-72
2023/04/27 04:53:10;;;;;;;3.40;3.10;;;7.50;95.10;;;;;;5110000;28;20636;-71
2023/04/27 04:55:36;;;;;;;3.63;3.33;;;7.60;94.70;;;;;;5109625;28;20221;-72
2023/04/27 04:58:03;;;;;;;6.23;3.87;;;7.60;94.60;;;;;;5101125;28;20202;-72
2023/04/27 05:00:30;;;;;;;3.60;3.27;;;7.70;94.40;;;;;;5096741;28;20648;-72
2023/04/27 05:02:57;;;;;;;4.25;3.95;;;7.70;94.30;;;;;;5089565;28;20619;-72
2023/04/27 05:05:24;;;;;;;2.83;2.63;;;7.70;94.30;;;;;;5102730;28;20238;-72
2023/04/27 05:07:52;;;;;;;4.97;2.60;;;7.70;94.20;;;;;;5104413;28;20862;-72
2023/04/27 05:10:19;;;;;;;3.25;3.05;;;7.70;94.40;;;;;;5106262;28;20196;-71
2023/04/27 05:12:45;;;;;;;3.63;3.23;;;7.70;94.40;;;;;;5108061;28;20604;-72
2023/04/27 05:15:12;;;;;;;4.30;2.90;;;7.80;94.30;;;;;;5102297;28;21217;-72
2023/04/27 05:17:39;;;;;;;3.47;2.33;;;7.80;94.40;;;;;;5104983;28;20628;-72
2023/04/27 05:20:08;;;;;;;5.40;2.93;;;7.90;94.50;;;;;;5088872;28;20707;-72
2023/04/27 05:22:35;;;;;;;5.27;3.40;;;7.90;94.50;;;;;;5108946;28;20733;-72
2023/04/27 05:25:05;;;;;;;4.23;2.80;;;7.90;94.30;;;;;;5108621;28;20701;-72
2023/04/27 05:27:32;;;;;;;4.23;3.37;;;7.90;94.30;;;;;;5107938;28;21225;-71
2023/04/27 05:29:58;;;;;;;3.13;2.73;;;8.00;94.30;;;;;;5092894;28;20654;-71
2023/04/27 05:32:25;;;;;;;10.93;3.60;;;8.00;94.30;;;;;;5106950;28;20998;-71
2023/04/27 05:34:52;;;;;;;3.87;3.50;;;8.00;94.40;;;;;;5096786;28;20284;-70
2023/04/27 05:37:19;;;;;;;2.83;2.60;;;8.00;94.20;;;;;;5088615;28;21288;-71
2023/04/27 05:39:46;;;;;;;3.30;3.00;;;8.10;94.50;;;;;;5102011;28;20766;-71
2023/04/27 05:42:14;;;;;;;4.40;3.40;;;8.10;94.30;;;;;;5108923;28;20669;-72
2023/04/27 05:44:40;;;;;;;3.90;3.10;;;8.10;94.50;;;;;;5091898;28;21206;-72
2023/04/27 05:47:07;;;;;;;4.27;3.97;;;8.20;94.70;;;;;;5100778;28;21238;-72
2023/04/27 05:49:34;;;;;;;5.00;3.90;;;8.20;94.70;;;;;;5107164;28;20713;-73
2023/04/27 05:52:02;;;;;;;4.10;3.70;;;8.30;94.50;;;;;;5107075;28;20673;-73
2023/04/27 05:54:29;;;;;;;4.13;3.33;;;8.30;94.50;;;;;;5108129;28;20626;-73
2023/04/27 05:56:56;;;;;;;4.93;4.53;;;8.30;94.60;;;;;;5107956;28;20646;-73
2023/04/27 05:59:26;;;;;;;3.57;2.90;;;8.30;94.60;;;;;;5107860;27;20627;-73
2023/04/27 06:01:53;;;;;;;6.03;3.90;;;8.50;94.80;;;;;;5108343;28;20794;-73
2023/04/27 06:04:20;;;;;;;3.33;3.07;;;8.50;94.70;;;;;;5108240;28;21244;-72
2023/04/27 06:06:46;;;;;;;4.00;3.70;;;8.60;94.70;;;;;;5108141;28;20777;-72
2023/04/27 06:09:13;;;;;;;4.70;3.57;;;8.60;94.40;;;;;;5108484;28;20622;-72
2023/04/27 06:11:40;;;;;;;8.33;3.10;;;8.60;94.20;;;;;;5108880;28;20677;-72
2023/04/27 06:14:07;;;;;;;4.90;3.57;;;8.60;94.30;;;;;;5109315;28;20708;-72
2023/04/27 06:16:35;;;;;;;5.10;4.17;;;8.70;94.40;;;;;;5108680;28;20654;-72
2023/04/27 06:19:02;;;;;;;3.90;3.60;;;8.70;94.20;;;;;;5108001;28;20733;-73
2023/04/27 06:21:31;;;;;;;5.97;5.40;;;8.80;94.30;;;;;;5108720;28;21032;-72
2023/04/27 06:23:58;;;;;;;12.93;7.40;;;8.80;94.20;;;;;;5108730;28;20630;-72
2023/04/27 06:26:25;;;;;;;13.10;4.70;;;8.90;93.80;;;;;;5108631;28;20677;-73
2023/04/27 06:28:52;;;;;;;3.83;3.40;;;8.90;92.90;;;;;;5107981;28;20621;-73
2023/04/27 06:31:19;;;;;;;8.73;4.07;;;8.90;92.40;;;;;;5108249;28;20649;-72
2023/04/27 06:33:47;;;;;;;5.10;4.70;;;9.00;92.80;;;;;;5108057;28;20622;-73
2023/04/27 06:36:13;;;;;;;7.10;4.50;;;9.10;92.70;;;;;;5108626;28;20649;-72
2023/04/27 06:38:40;;;;;;;12.53;8.10;;;9.20;92.50;;;;;;5107538;28;20618;-72
2023/04/27 06:41:07;;;;;;;7.23;6.53;;;9.20;92.70;;;;;;5107634;28;20657;-72
2023/04/27 06:43:34;;;;;;;5.23;4.73;;;9.30;92.60;;;;;;5108801;28;20944;-72
2023/04/27 06:46:01;;;;;;;4.33;3.70;;;9.40;92.80;;;;;;5108348;28;20658;-72
2023/04/27 06:48:28;;;;;;;5.17;4.27;;;9.50;92.40;;;;;;5107443;28;20626;-73
2023/04/27 06:50:56;;;;;;;3.40;3.10;;;9.60;92.20;;;;;;5108306;28;20748;-75
2023/04/27 06:53:23;;;;;;;3.57;3.27;;;9.70;92.00;;;;;;5108327;28;20956;-74
2023/04/27 06:55:50;;;;;;;4.67;3.60;;;9.70;92.30;;;;;;5107982;28;20646;-75
2023/04/27 06:58:17;;;;;;;4.47;4.00;;;9.80;92.30;;;;;;5107777;28;20615;-75
2023/04/27 07:00:44;;;;;;;6.93;4.10;;;9.90;92.60;;;;;;5102685;28;20644;-75
2023/04/27 07:03:11;;;;;;;4.13;3.73;;;10.00;91.70;;;;;;5093657;28;20626;-77
2023/04/27 07:05:37;;;;;;;7.10;5.00;;;10.00;91.80;;;;;;5093447;28;20667;-75
2023/04/27 07:08:06;;;;;;;4.17;3.03;;;10.20;91.20;;;;;;5094767;28;20628;-74
2023/04/27 07:10:33;;;;;;;3.20;2.80;;;10.10;90.70;;;;;;5095741;28;21214;-76
2023/04/27 07:13:00;;;;;;;4.07;3.63;;;10.20;90.20;;;;;;5086191;28;21154;-74
2023/04/27 07:15:27;;;;;;;2.93;2.63;;;10.20;89.80;;;;;;5094500;28;20686;-74
2023/04/27 07:17:54;;;;;;;4.30;3.90;;;10.30;89.90;;;;;;5089273;28;20634;-74
2023/04/27 07:20:20;;;;;;;4.40;3.00;;;10.50;89.70;;;;;;5087024;28;21086;-76
2023/04/27 07:22:47;;;;;;;3.97;3.33;;;10.60;88.50;;;;;;5095736;28;20637;-76
2023/04/27 07:25:16;;;;;;;4.03;3.63;;;10.70;87.90;;;;;;5087737;28;20628;-73
2023/04/27 07:27:44;;;;;;;4.30;3.57;;;10.90;88.00;;;;;;5093565;28;20661;-72
2023/04/27 07:30:12;;;;;;;3.20;2.77;;;11.10;86.10;;;;;;5095269;28;20637;-72
2023/04/27 07:32:40;;;;;;;2.80;2.53;;;11.00;86.80;;;;;;5089757;28;21062;-73
2023/04/27 07:35:08;;;;;;;3.37;3.07;;;11.10;86.00;;;;;;5087567;28;20680;-73
2023/04/27 07:37:36;;;;;;;14.93;9.63;;;11.20;85.60;;;;;;5091005;28;20618;-73
2023/04/27 07:40:09;;;;;;;4.60;3.40;;;11.40;84.70;;;;;;5094962;28;20627;-74
2023/04/27 07:42:40;;;;;;;3.57;3.27;;;11.30;83.40;;;;;;5090061;28;20678;-73
2023/04/27 07:45:08;;;;;;;13.13;4.43;;;11.40;83.90;;;;;;5093689;28;20666;-74
2023/04/27 07:47:35;;;;;;;3.30;2.90;;;11.70;84.10;;;;;;5088860;28;20700;-74
2023/04/27 07:50:05;;;;;;;4.53;3.70;;;11.60;80.50;;;;;;5094090;28;21174;-74
2023/04/27 07:52:31;;;;;;;4.60;2.37;;;11.70;81.80;;;;;;5095113;28;20633;-74
2023/04/27 07:54:58;;;;;;;2.70;2.50;;;11.80;82.10;;;;;;5096231;27;20626;-75
2023/04/27 07:57:25;;;;;;;2.50;2.30;;;12.00;81.80;;;;;;5090982;28;20650;-75
2023/04/27 07:59:53;;;;;;;3.77;3.03;;;12.00;83.40;;;;;;5107355;28;20960;-75
2023/04/27 08:02:20;;;;;;;3.23;2.20;;;12.20;82.70;;;;;;5111606;28;20654;-74
2023/04/27 08:04:47;;;;;;;5.37;3.77;;;12.30;78.60;;;;;;5111368;28;20632;-74
2023/04/27 08:07:15;;;;;;;10.20;7.20;;;12.50;80.50;;;;;;5111177;28;21222;-74
2023/04/27 08:09:42;;;;;;;3.40;2.90;;;12.50;80.80;;;;;;5110289;28;20964;-74
2023/04/27 08:12:08;;;;;;;4.93;2.43;;;12.60;79.30;;;;;;5111160;28;20648;-74
2023/04/27 08:14:35;;;;;;;3.13;2.40;;;12.70;77.00;;;;;;5111331;28;20625;-75
2023/04/27 08:17:03;;;;;;;4.20;2.70;;;12.60;78.10;;;;;;5111076;28;20647;-74
2023/04/27 08:19:30;;;;;;;3.90;2.80;;;12.70;76.50;;;;;;5110624;27;20625;-75
2023/04/27 08:21:57;;;;;;;2.27;2.10;;;12.80;78.40;;;;;;5111191;28;20656;-74
2023/04/27 08:24:24;;;;;;;3.43;2.60;;;13.00;78.20;;;;;;5111116;28;20626;-75
2023/04/27 08:26:51;;;;;;;2.13;1.90;;;13.30;75.00;;;;;;5110979;28;20746;-74
2023/04/27 08:29:17;;;;;;;3.47;3.00;;;13.30;76.10;;;;;;5110277;28;20688;-74
2023/04/27 08:31:44;;;;;;;4.47;2.30;;;13.40;74.50;;;;;;5110697;28;20663;-75
2023/04/27 08:34:12;;;;;;;2.40;2.20;;;13.60;75.00;;;;;;5110899;28;20622;-74
2023/04/27 08:36:39;;;;;;;1.93;1.67;;;13.60;73.10;;;;;;5110231;28;21005;-74
2023/04/27 08:39:07;;;;;;;1.40;1.30;;;13.70;69.60;;;;;;5110262;28;20626;-75
2023/04/27 08:41:34;;;;;;;3.87;1.97;;;13.70;69.60;;;;;;5110865;28;20638;-74
2023/04/27 08:44:02;;;;;;;2.53;2.30;;;13.50;73.10;;;;;;5110301;28;20626;-74
2023/04/27 08:46:30;;;;;;;2.50;2.30;;;13.80;72.60;;;;;;5110215;28;20669;-74
2023/04/27 08:48:57;;;;;;;2.17;1.93;;;14.00;72.20;;;;;;5108336;28;20629;-74
2023/04/27 08:51:26;;;;;;;2.67;1.90;;;14.10;73.00;;;;;;5109980;28;20654;-74
2023/04/27 08:53:54;;;;;;;1.70;1.50;;;14.00;69.80;;;;;;5110642;28;20939;-74
2023/04/27 08:56:23;;;;;;;3.60;2.00;;;13.80;70.40;;;;;;5110388;28;20651;-74
2023/04/27 08:58:51;;;;;;;2.07;1.90;;;14.10;69.80;;;;;;5109554;28;21246;-74
2023/04/27 09:01:18;;;;;;;2.00;1.60;;;14.10;70.30;;;;;;5110120;27;20666;-74
2023/04/27 09:03:46;;;;;;;2.00;1.90;;;14.20;71.70;;;;;;5109456;28;20952;-74
2023/04/27 09:06:13;;;;;;;1.80;1.60;;;14.30;67.30;;;;;;5110234;28;20773;-74
2023/04/27 09:08:46;;;;;;;2.60;2.40;;;14.10;65.30;;;;;;5109631;27;20634;-74
2023/04/27 09:11:13;;;;;;;1.93;1.83;;;13.60;67.90;;;;;;5109949;28;20649;-74
2023/04/27 09:13:43;;;;;;;2.43;2.07;;;13.40;69.30;;;;;;5109801;28;20993;-75
2023/04/27 09:16:12;;;;;;;6.33;1.73;;;13.60;68.50;;;;;;5109291;28;20654;-74
2023/04/27 09:18:42;;;;;;;1.73;1.63;;;13.70;71.20;;;;;;5109454;28;21083;-74
2023/04/27 09:21:09;;;;;;;1.93;1.73;;;13.90;72.00;;;;;;5109896;28;20659;-74
2023/04/27 09:23:37;;;;;;;1.90;1.70;;;14.20;70.40;;;;;;5109993;28;20666;-75
2023/04/27 09:26:07;;;;;;;2.47;2.20;;;14.40;69.70;;;;;;5109568;28;21248;-72
2023/04/27 09:28:35;;;;;;;1.57;1.47;;;14.60;67.20;;;;;;5109083;28;20616;-72
2023/04/27 09:31:03;;;;;;;2.17;1.57;;;14.80;66.90;;;;;;5108933;28;20652;-72
2023/04/27 09:33:31;;;;;;;1.90;1.80;;;15.00;67.00;;;;;;5109581;28;21208;-72
2023/04/27 09:36:00;;;;;;;2.37;2.10;;;15.10;64.20;;;;;;5109465;28;20658;-72
2023/04/27 09:38:27;;;;;;;4.33;1.63;;;14.90;59.90;;;;;;5108920;28;20632;-72
2023/04/27 09:40:55;;;;;;;4.17;2.50;;;15.10;61.60;;;;;;5109419;28;21267;-72
2023/04/27 09:43:26;;;;;;;1.83;1.73;;;15.20;64.20;;;;;;5109247;28;20628;-71
2023/04/27 09:45:54;;;;;;;2.50;1.80;;;15.40;65.30;;;;;;5109401;27;20965;-71
2023/04/27 09:48:21;;;;;;;2.30;2.10;;;15.50;64.90;;;;;;5108670;28;20665;-71
2023/04/27 09:50:50;;;;;;;2.27;2.10;;;15.80;66.20;;;;;;5108939;28;20652;-72
2023/04/27 09:53:20;;;;;;;3.47;2.70;;;16.10;65.80;;;;;;5109201;28;20610;-72
2023/04/27 09:55:55;;;;;;;2.40;2.20;;;16.10;65.50;;;;;;5108638;28;20649;-72
2023/04/27 09:58:48;;;;;;;3.20;2.27;;;16.30;64.50;;;;;;5108483;28;20632;-72
2023/04/27 10:01:26;;;;;;;2.30;2.10;;;16.50;62.50;;;;;;5109312;28;20650;-72
2023/04/27 10:04:05;;;;;;;3.13;2.77;;;16.40;60.50;;;;;;5109036;28;20634;-72
2023/04/27 10:06:57;;;;;;;3.20;2.30;;;16.30;61.90;;;;;;5108845;28;20752;-72
2023/04/27 10:09:24;;;;;;;4.87;2.10;;;16.20;59.90;;;;;;5107385;28;20630;-72
2023/04/27 10:11:52;;;;;;;4.47;2.63;;;16.00;61.40;;;;;;5107840;28;21007;-73
2023/04/27 10:14:21;;;;;;;3.20;2.97;;;15.90;61.60;;;;;;5107374;28;20624;-71
2023/04/27 10:16:52;;;;;;;2.60;2.40;;;15.50;59.60;;;;;;5107686;28;20663;-71
2023/04/27 10:19:20;;;;;;;2.30;2.10;;;15.50;62.40;;;;;;5108270;28;20952;-71
2023/04/27 10:21:55;;;;;;;3.10;2.43;;;15.50;63.30;;;;;;5107865;28;20654;-71
2023/04/27 10:24:36;;;;;;;1.90;1.80;;;15.70;63.20;;;;;;5107778;28;20621;-71
2023/04/27 10:27:05;;;;;;;2.20;1.70;;;15.90;62.90;;;;;;5107923;28;20658;-71
2023/04/27 10:29:37;;;;;;;2.90;1.90;;;16.20;63.90;;;;;;5107803;28;21175;-72
2023/04/27 10:32:12;;;;;;;4.70;2.90;;;16.50;64.10;;;;;;5108473;28;20667;-71
2023/04/27 10:34:40;;;;;;;4.70;2.93;;;16.20;59.40;;;;;;5107297;28;20720;-71
2023/04/27 10:37:10;;;;;;;2.40;2.20;;;16.20;61.70;;;;;;5107943;28;20745;-71
2023/04/27 10:39:39;;;;;;;2.87;2.33;;;16.40;62.70;;;;;;5107194;28;21165;-71
2023/04/27 10:42:07;;;;;;;2.93;2.67;;;16.80;62.00;;;;;;5108264;28;20749;-71
2023/04/27 10:44:37;;;;;;;3.77;2.33;;;16.90;63.00;;;;;;5107334;28;20627;-71
2023/04/27 10:47:13;;;;;;;3.70;2.30;;;16.80;59.70;;;;;;5108010;28;21016;-71
2023/04/27 10:49:40;;;;;;;2.77;2.57;;;17.00;61.50;;;;;;5108333;28;21066;-71
2023/04/27 10:52:07;;;;;;;2.13;2.03;;;17.10;59.10;;;;;;5107330;28;20649;-71
2023/04/27 10:54:36;;;;;;;3.03;2.73;;;17.20;59.80;;;;;;5108275;28;20734;-71
2023/04/27 10:57:06;;;;;;;3.20;2.80;;;17.00;57.20;;;;;;5108166;28;20665;-72
2023/04/27 10:59:34;;;;;;;2.37;2.10;;;16.90;59.40;;;;;;5107613;28;20685;-71
2023/04/27 11:02:02;;;;;;;3.25;2.42;;;17.00;58.00;;;;;;5107546;28;20748;-71
2023/04/27 11:04:38;;;;;;;1.97;1.70;;;17.20;58.00;;;;;;5107846;28;20208;-71
2023/04/27 11:07:07;;;;;;;1.23;1.17;;;17.40;56.90;;;;;;5108180;28;20716;-71
2023/04/27 11:09:35;;;;;;;2.33;2.13;;;17.70;57.00;;;;;;5107511;28;20724;-72
2023/04/27 11:12:02;;;;;;;1.70;1.60;;;17.80;58.60;;;;;;5108151;28;20639;-72
2023/04/27 11:14:29;;;;;;;2.03;1.33;;;17.80;58.40;;;;;;5106527;28;20647;-72
2023/04/27 11:16:56;;;;;;;2.07;1.87;;;17.60;55.60;;;;;;5107732;28;20644;-71
2023/04/27 11:19:24;;;;;;;1.87;1.27;;;17.80;56.50;;;;;;5107807;28;20618;-71
2023/04/27 11:21:51;;;;;;;2.40;1.50;;;17.90;54.80;;;;;;5105760;28;21035;-72
2023/04/27 11:24:18;;;;;;;1.20;1.20;;;18.00;56.80;;;;;;5107772;28;20635;-72
2023/04/27 11:26:52;;;;;;;2.10;1.37;;;18.20;54.40;;;;;;5109323;28;20640;-72
2023/04/27 11:29:18;;;;;;;0.87;0.87;;;18.10;53.50;;;;;;5111599;28;20623;-72
2023/04/27 11:31:47;;;;;;;1.67;1.50;;;18.30;55.00;;;;;;5110921;28;21211;-72
2023/04/27 11:34:18;;;;;;;1.40;1.30;;;18.70;54.10;;;;;;5111904;28;20616;-72
2023/04/27 11:36:56;;;;;;;3.50;1.50;;;19.10;54.70;;;;;;5111946;28;21116;-72
2023/04/27 11:39:23;;;;;;;1.60;1.50;;;19.70;53.90;;;;;;5111393;28;20618;-72
2023/04/27 11:41:50;;;;;;;1.23;1.13;;;20.10;53.00;;;;;;5112485;28;20662;-72
2023/04/27 11:44:17;;;;;;;2.93;1.60;;;19.80;53.70;;;;;;5110944;28;20622;-72
2023/04/27 11:46:46;;;;;;;2.00;1.80;;;19.60;52.50;;;;;;5110682;28;20635;-71
2023/04/27 11:49:14;;;;;;;1.60;1.50;;;20.00;53.70;;;;;;5111185;28;20693;-72
2023/04/27 11:51:43;;;;;;;1.97;1.50;;;20.40;54.10;;;;;;5111640;28;20647;-71
2023/04/27 11:54:12;;;;;;;1.30;1.10;;;20.30;49.30;;;;;;5111760;28;20643;-71
2023/04/27 11:56:40;;;;;;;1.47;1.17;;;20.20;52.10;;;;;;5111043;28;20644;-72
2023/04/27 11:59:18;;;;;;;1.90;1.80;;;20.30;49.70;;;;;;5111098;28;20616;-72
2023/04/27 12:01:45;;;;;;;2.50;1.37;;;20.60;51.40;;;;;;5111139;28;20646;-71
2023/04/27 12:04:12;;;;;;;1.80;1.70;;;21.20;51.40;;;;;;5111584;28;20654;-72
2023/04/27 12:06:39;;;;;;;1.47;1.37;;;21.90;51.50;;;;;;5111270;28;20681;-72
2023/04/27 12:09:06;;;;;;;1.60;1.50;;;22.60;49.90;;;;;;5109955;28;20666;-72
2023/04/27 12:11:34;;;;;;;2.07;1.40;;;23.00;48.10;;;;;;5111219;28;20653;-72
2023/04/27 12:14:02;;;;;;;2.07;1.90;;;23.20;48.50;;;;;;5111506;28;20641;-72
2023/04/27 12:16:29;;;;;;;2.33;2.13;;;23.20;48.80;;;;;;5109245;28;20651;-72
2023/04/27 12:18:56;;;;;;;2.60;2.33;;;22.90;49.50;;;;;;5110898;28;20626;-72
2023/04/27 12:21:25;;;;;;;2.50;2.30;;;22.70;49.50;;;;;;5111044;28;21240;-72
2023/04/27 12:23:52;;;;;;;2.37;2.17;;;22.60;49.80;;;;;;5110478;28;20831;-72
2023/04/27 12:26:19;;;;;;;2.87;2.17;;;22.30;47.80;;;;;;5111082;28;20646;-72
2023/04/27 12:28:47;;;;;;;2.10;1.90;;;21.80;49.80;;;;;;5110402;28;21004;-74
2023/04/27 12:31:17;;;;;;;1.80;1.60;;;21.90;50.50;;;;;;5110777;28;21047;-73
2023/04/27 12:33:44;;;;;;;2.10;1.80;;;21.40;49.90;;;;;;5110661;28;20629;-73
2023/04/27 12:36:11;;;;;;;2.17;1.97;;;21.40;49.30;;;;;;5110149;28;20659;-73
2023/04/27 12:38:38;;;;;;;3.07;2.40;;;21.80;49.90;;;;;;5109484;28;20629;-73
2023/04/27 12:41:05;;;;;;;2.80;2.60;;;22.40;50.80;;;;;;5110516;28;20693;-73
2023/04/27 12:43:31;;;;;;;6.33;2.30;;;22.60;48.50;;;;;;5110783;28;20642;-73
2023/04/27 12:46:00;;;;;;;2.97;2.70;;;22.80;47.90;;;;;;5110640;28;20654;-74
2023/04/27 12:48:27;;;;;;;3.13;2.93;;;22.60;48.50;;;;;;5109498;28;20659;-73
2023/04/27 12:50:54;;;;;;;2.77;2.57;;;22.00;48.40;;;;;;5109939;28;20656;-73
2023/04/27 12:53:21;;;;;;;3.00;2.73;;;21.50;48.70;;;;;;5110663;27;20622;-73
2023/04/27 12:55:48;;;;;;;3.03;2.73;;;21.20;48.50;;;;;;5110281;28;20644;-73